Aracu, Brazil
Current Conditions -  °F | °C
As of 11:00 PM on Monday 26 Jan 2015 (Local Time) from SBGO Reporting Station
Broken Clouds Broken Clouds  
Wind Chill: 72°   Ceiling: 10000
Heat Index: 72°   Visibility: 6mi
Dew Point: 66°   Wind: 8mph
Humidity: 83%   Direction: 110°ESE
Pressure: 30.06"   Gusts: NA
Location:  16.36°S, 49.68°W
Report Text: SBGO 270100Z 11007KT 9999 FEW040 BKN100 22/19 Q1018
Loading
Personal Weather Stations






























Interactive Weather Map New forecast layout! Learn more

10-Day Weather Forecast

Advertisements
Track Severe Weather on mobile